sensor_id;sensor_type;location;lat;lon;timestamp;pressure;altitude;pressure_sealevel;temperature;humidity
71938;BME280;59810;48.800;9.086;2023-05-24T00:00:05;97954.63;;;12.42;72.71
71938;BME280;59810;48.800;9.086;2023-05-24T00:02:33;97943.59;;;12.49;72.90
71938;BME280;59810;48.800;9.086;2023-05-24T00:05:02;97948.19;;;12.49;72.78
71938;BME280;59810;48.800;9.086;2023-05-24T00:07:27;97942.78;;;12.49;72.82
71938;BME280;59810;48.800;9.086;2023-05-24T00:09:52;97951.50;;;12.56;73.27
71938;BME280;59810;48.800;9.086;2023-05-24T00:12:17;97946.56;;;12.48;72.45
71938;BME280;59810;48.800;9.086;2023-05-24T00:14:43;97943.84;;;12.48;72.97
71938;BME280;59810;48.800;9.086;2023-05-24T00:17:08;97943.84;;;12.48;73.27
71938;BME280;59810;48.800;9.086;2023-05-24T00:19:34;97939.19;;;12.43;73.04
71938;BME280;59810;48.800;9.086;2023-05-24T00:22:02;97946.25;;;12.44;73.93
71938;BME280;59810;48.800;9.086;2023-05-24T00:24:27;97942.78;;;12.49;73.99
71938;BME280;59810;48.800;9.086;2023-05-24T00:26:53;97941.44;;;12.51;72.98
71938;BME280;59810;48.800;9.086;2023-05-24T00:29:18;97940.88;;;12.49;74.17
71938;BME280;59810;48.800;9.086;2023-05-24T00:31:46;97932.97;;;12.42;74.60
71938;BME280;59810;48.800;9.086;2023-05-24T00:34:13;97932.44;;;12.45;74.46
71938;BME280;59810;48.800;9.086;2023-05-24T00:36:39;97928.41;;;12.48;73.43
71938;BME280;59810;48.800;9.086;2023-05-24T00:39:04;97922.13;;;12.42;73.62
71938;BME280;59810;48.800;9.086;2023-05-24T00:41:30;97928.38;;;12.43;73.56
71938;BME280;59810;48.800;9.086;2023-05-24T00:43:55;97924.59;;;12.44;73.77
71938;BME280;59810;48.800;9.086;2023-05-24T00:46:29;97924.59;;;12.44;73.49
71938;BME280;59810;48.800;9.086;2023-05-24T00:48:55;97923.81;;;12.49;72.98
71938;BME280;59810;48.800;9.086;2023-05-24T00:51:21;97928.94;;;12.45;73.15
71938;BME280;59810;48.800;9.086;2023-05-24T00:53:48;97931.03;;;12.38;73.67
71938;BME280;59810;48.800;9.086;2023-05-24T00:56:14;97930.78;;;12.39;73.78
71938;BME280;59810;48.800;9.086;2023-05-24T00:58:40;97930.50;;;12.41;73.61
71938;BME280;59810;48.800;9.086;2023-05-24T01:01:08;97930.56;;;12.46;73.47
71938;BME280;59810;48.800;9.086;2023-05-24T01:03:37;97933.72;;;12.38;72.58
71938;BME280;59810;48.800;9.086;2023-05-24T01:06:05;97925.59;;;12.38;72.37
71938;BME280;59810;48.800;9.086;2023-05-24T01:16:43;97930.88;;;12.28;71.51
71938;BME280;59810;48.800;9.086;2023-05-24T01:25:04;97939.41;;;12.14;71.80
71938;BME280;59810;48.800;9.086;2023-05-24T01:27:33;97935.38;;;12.17;71.55
71938;BME280;59810;48.800;9.086;2023-05-24T01:30:00;97926.81;;;12.03;70.65
71938;BME280;59810;48.800;9.086;2023-05-24T01:32:26;97929.44;;;11.98;70.42
71938;BME280;59810;48.800;9.086;2023-05-24T01:34:51;97918.88;;;11.97;70.75
71938;BME280;59810;48.800;9.086;2023-05-24T01:37:17;97912.13;;;11.99;70.99
71938;BME280;59810;48.800;9.086;2023-05-24T01:39:42;97923.53;;;12.01;70.74
71938;BME280;59810;48.800;9.086;2023-05-24T01:42:10;97926.06;;;12.08;72.07
71938;BME280;59810;48.800;9.086;2023-05-24T01:48:15;97935.97;;;12.02;69.75
71938;BME280;59810;48.800;9.086;2023-05-24T01:50:51;97933.28;;;12.02;70.33
71938;BME280;59810;48.800;9.086;2023-05-24T01:53:19;97923.28;;;12.03;69.79
71938;BME280;59810;48.800;9.086;2023-05-24T01:55:47;97935.94;;;11.97;70.78
71938;BME280;59810;48.800;9.086;2023-05-24T01:58:15;97944.41;;;11.84;69.68
71938;BME280;59810;48.800;9.086;2023-05-24T02:00:43;97942.22;;;11.81;69.97
71938;BME280;59810;48.800;9.086;2023-05-24T02:03:12;97932.72;;;11.78;71.15
71938;BME280;59810;48.800;9.086;2023-05-24T02:05:38;97936.47;;;11.77;70.74
71938;BME280;59810;48.800;9.086;2023-05-24T02:08:03;97936.41;;;11.72;71.13
71938;BME280;59810;48.800;9.086;2023-05-24T02:10:29;97938.59;;;11.75;71.90
71938;BME280;59810;48.800;9.086;2023-05-24T02:12:54;97935.63;;;11.77;72.14
71938;BME280;59810;48.800;9.086;2023-05-24T02:15:23;97938.94;;;11.79;71.81
71938;BME280;59810;48.800;9.086;2023-05-24T02:17:50;97942.06;;;11.71;71.93
71938;BME280;59810;48.800;9.086;2023-05-24T02:20:19;97931.72;;;11.68;73.07
71938;BME280;59810;48.800;9.086;2023-05-24T02:22:49;97942.63;;;11.73;73.47
71938;BME280;59810;48.800;9.086;2023-05-24T02:25:15;97943.69;;;11.72;73.05
71938;BME280;59810;48.800;9.086;2023-05-24T02:27:40;97944.66;;;11.66;73.37
71938;BME280;59810;48.800;9.086;2023-05-24T02:30:07;97939.25;;;11.66;73.29
71938;BME280;59810;48.800;9.086;2023-05-24T02:32:33;97943.78;;;11.60;73.30
71938;BME280;59810;48.800;9.086;2023-05-24T02:35:01;97944.78;;;11.54;73.68
71938;BME280;59810;48.800;9.086;2023-05-24T02:37:29;97950.50;;;11.58;74.24
71938;BME280;59810;48.800;9.086;2023-05-24T02:39:55;97947.53;;;11.59;74.81
71938;BME280;59810;48.800;9.086;2023-05-24T02:42:20;97946.72;;;11.59;73.12
71938;BME280;59810;48.800;9.086;2023-05-24T02:44:45;97941.25;;;11.53;73.13
71938;BME280;59810;48.800;9.086;2023-05-24T02:47:13;97941.19;;;11.48;74.51
71938;BME280;59810;48.800;9.086;2023-05-24T02:49:38;97941.19;;;11.48;74.66
71938;BME280;59810;48.800;9.086;2023-05-24T02:52:04;97947.34;;;11.44;74.31
71938;BME280;59810;48.800;9.086;2023-05-24T02:54:30;97947.47;;;11.37;74.59
71938;BME280;59810;48.800;9.086;2023-05-24T02:56:55;97937.84;;;11.41;74.96
71938;BME280;59810;48.800;9.086;2023-05-24T02:59:22;97940.03;;;11.44;74.28
71938;BME280;59810;48.800;9.086;2023-05-24T03:01:48;97939.47;;;11.42;74.41
71938;BME280;59810;48.800;9.086;2023-05-24T03:04:13;97942.44;;;11.41;74.23
71938;BME280;59810;48.800;9.086;2023-05-24T03:06:38;97939.06;;;11.34;74.67
71938;BME280;59810;48.800;9.086;2023-05-24T03:09:04;97937.97;;;11.35;74.99
71938;BME280;59810;48.800;9.086;2023-05-24T03:11:29;97944.72;;;11.32;74.59
71938;BME280;59810;48.800;9.086;2023-05-24T03:13:55;97938.22;;;11.33;74.71
71938;BME280;59810;48.800;9.086;2023-05-24T03:16:20;97942.25;;;11.31;74.55
71938;BME280;59810;48.800;9.086;2023-05-24T03:18:47;97936.03;;;11.13;74.70
71938;BME280;59810;48.800;9.086;2023-05-24T03:21:15;97944.97;;;11.14;75.52
71938;BME280;59810;48.800;9.086;2023-05-24T03:23:44;97935.16;;;11.08;75.39
71938;BME280;59810;48.800;9.086;2023-05-24T03:26:10;97937.28;;;11.06;76.16
71938;BME280;59810;48.800;9.086;2023-05-24T03:28:37;97935.03;;;11.03;75.64
71938;BME280;59810;48.800;9.086;2023-05-24T03:31:06;97936.84;;;10.97;75.28
71938;BME280;59810;48.800;9.086;2023-05-24T03:33:31;97927.44;;;10.83;76.16
71938;BME280;59810;48.800;9.086;2023-05-24T03:35:57;97932.50;;;10.79;76.17
71938;BME280;59810;48.800;9.086;2023-05-24T03:38:22;97926.44;;;10.89;76.71
71938;BME280;59810;48.800;9.086;2023-05-24T03:40:50;97929.97;;;10.89;76.76
71938;BME280;59810;48.800;9.086;2023-05-24T03:43:15;97933.81;;;10.94;76.85
71938;BME280;59810;48.800;9.086;2023-05-24T03:45:41;97939.22;;;10.94;76.79
71938;BME280;59810;48.800;9.086;2023-05-24T03:48:11;97942.75;;;10.94;75.60
71938;BME280;59810;48.800;9.086;2023-05-24T03:50:37;97943.56;;;10.95;75.86
71938;BME280;59810;48.800;9.086;2023-05-24T03:53:02;97939.78;;;10.96;75.59
71938;BME280;59810;48.800;9.086;2023-05-24T03:55:27;97931.13;;;10.94;74.93
71938;BME280;59810;48.800;9.086;2023-05-24T03:57:53;97933.31;;;10.97;75.57
71938;BME280;59810;48.800;9.086;2023-05-24T04:00:18;97938.97;;;10.95;75.09
71938;BME280;59810;48.800;9.086;2023-05-24T04:02:44;97934.38;;;10.96;75.35
71938;BME280;59810;48.800;9.086;2023-05-24T04:05:12;97928.91;;;10.90;75.37
71938;BME280;59810;48.800;9.086;2023-05-24T04:07:38;97927.28;;;10.89;75.57
71938;BME280;59810;48.800;9.086;2023-05-24T04:10:08;97922.19;;;10.93;75.84
71938;BME280;59810;48.800;9.086;2023-05-24T04:12:33;97926.53;;;10.94;75.58
71938;BME280;59810;48.800;9.086;2023-05-24T04:15:00;97924.16;;;10.98;76.53
71938;BME280;59810;48.800;9.086;2023-05-24T04:17:26;97923.91;;;10.99;76.71
71938;BME280;59810;48.800;9.086;2023-05-24T04:19:53;97931.44;;;10.97;75.82
71938;BME280;59810;48.800;9.086;2023-05-24T04:22:18;97923.66;;;11.01;76.03
71938;BME280;59810;48.800;9.086;2023-05-24T04:24:44;97928.25;;;11.00;76.09
71938;BME280;59810;48.800;9.086;2023-05-24T04:27:10;97925.72;;;10.94;74.58
71938;BME280;59810;48.800;9.086;2023-05-24T04:29:35;97933.72;;;10.88;75.78
71938;BME280;59810;48.800;9.086;2023-05-24T04:32:01;97928.41;;;10.94;76.26
71938;BME280;59810;48.800;9.086;2023-05-24T04:34:28;97929.72;;;10.91;75.59
71938;BME280;59810;48.800;9.086;2023-05-24T04:36:54;97930.53;;;10.91;76.22
71938;BME280;59810;48.800;9.086;2023-05-24T04:39:20;97934.31;;;10.90;75.76
71938;BME280;59810;48.800;9.086;2023-05-24T04:41:47;97941.25;;;10.86;75.63
71938;BME280;59810;48.800;9.086;2023-05-24T04:44:17;97937.75;;;10.86;76.24
71938;BME280;59810;48.800;9.086;2023-05-24T04:46:43;97944.22;;;10.85;76.01
71938;BME280;59810;48.800;9.086;2023-05-24T04:49:10;97943.06;;;10.81;76.13
71938;BME280;59810;48.800;9.086;2023-05-24T04:51:36;97949.78;;;10.78;76.53
71938;BME280;59810;48.800;9.086;2023-05-24T04:54:08;97948.72;;;10.79;76.60
71938;BME280;59810;48.800;9.086;2023-05-24T04:56:34;97955.22;;;10.67;77.21
71938;BME280;59810;48.800;9.086;2023-05-24T04:59:00;97949.78;;;10.78;77.03
71938;BME280;59810;48.800;9.086;2023-05-24T05:01:28;97965.50;;;10.81;76.60
71938;BME280;59810;48.800;9.086;2023-05-24T05:03:53;97951.25;;;10.86;76.78
71938;BME280;59810;48.800;9.086;2023-05-24T05:06:18;97959.03;;;10.82;75.96
71938;BME280;59810;48.800;9.086;2023-05-24T05:08:43;97959.84;;;10.83;76.36
71938;BME280;59810;48.800;9.086;2023-05-24T05:11:09;97961.72;;;10.82;76.05
71938;BME280;59810;48.800;9.086;2023-05-24T05:13:34;97963.13;;;10.85;76.68
71938;BME280;59810;48.800;9.086;2023-05-24T05:16:01;97968.75;;;10.83;76.25
71938;BME280;59810;48.800;9.086;2023-05-24T05:18:26;97965.50;;;10.81;76.45
71938;BME280;59810;48.800;9.086;2023-05-24T05:20:51;97966.97;;;10.89;77.10
71938;BME280;59810;48.800;9.086;2023-05-24T05:23:17;97975.06;;;10.89;74.77
71938;BME280;59810;48.800;9.086;2023-05-24T05:25:42;97965.25;;;10.83;75.19
71938;BME280;59810;48.800;9.086;2023-05-24T05:28:07;97967.22;;;10.87;74.60
71938;BME280;59810;48.800;9.086;2023-05-24T05:30:33;97965.91;;;10.90;75.90
71938;BME280;59810;48.800;9.086;2023-05-24T05:32:58;97963.84;;;10.97;75.69
71938;BME280;59810;48.800;9.086;2023-05-24T05:35:25;97956.41;;;11.04;75.58
71938;BME280;59810;48.800;9.086;2023-05-24T05:37:51;97960.03;;;11.10;75.79
71938;BME280;59810;48.800;9.086;2023-05-24T05:40:16;97956.84;;;11.13;74.63
71938;BME280;59810;48.800;9.086;2023-05-24T05:42:42;97960.44;;;11.18;74.73
71938;BME280;59810;48.800;9.086;2023-05-24T05:45:07;97962.25;;;11.13;72.92
71938;BME280;59810;48.800;9.086;2023-05-24T05:47:33;97970.13;;;11.14;72.42
71938;BME280;59810;48.800;9.086;2023-05-24T05:49:58;97965.34;;;11.05;73.17
71938;BME280;59810;48.800;9.086;2023-05-24T05:52:23;97955.22;;;11.12;73.43
71938;BME280;59810;48.800;9.086;2023-05-24T05:54:49;97962.25;;;11.13;72.60
71938;BME280;59810;48.800;9.086;2023-05-24T05:57:15;97963.97;;;11.19;72.69
71938;BME280;59810;48.800;9.086;2023-05-24T05:59:48;97958.63;;;11.24;72.20
71938;BME280;59810;48.800;9.086;2023-05-24T06:02:13;97959.22;;;11.26;70.42
71938;BME280;59810;48.800;9.086;2023-05-24T06:04:38;97952.50;;;11.29;71.55
71938;BME280;59810;48.800;9.086;2023-05-24T06:07:04;97956.84;;;11.30;71.11
71938;BME280;59810;48.800;9.086;2023-05-24T06:09:29;97952.75;;;11.27;72.44
71938;BME280;59810;48.800;9.086;2023-05-24T06:11:55;97953.94;;;11.36;71.35
71938;BME280;59810;48.800;9.086;2023-05-24T06:14:20;97948.97;;;11.45;70.99
71938;BME280;59810;48.800;9.086;2023-05-24T06:16:46;97955.69;;;11.26;70.45
71938;BME280;59810;48.800;9.086;2023-05-24T06:19:12;97950.84;;;11.28;71.56
71938;BME280;59810;48.800;9.086;2023-05-24T06:21:37;97950.59;;;11.29;70.57
71938;BME280;59810;48.800;9.086;2023-05-24T06:24:05;97946.41;;;12.10;84.90
71938;BME280;59810;48.800;9.086;2023-05-24T06:26:35;97946.63;;;12.31;86.37
71938;BME280;59810;48.800;9.086;2023-05-24T06:29:01;97943.81;;;12.21;70.59
71938;BME280;59810;48.800;9.086;2023-05-24T06:31:26;97955.31;;;11.89;70.81
71938;BME280;59810;48.800;9.086;2023-05-24T06:33:51;97957.03;;;12.17;70.42
71938;BME280;59810;48.800;9.086;2023-05-24T06:36:19;97956.16;;;12.11;68.28
71938;BME280;59810;48.800;9.086;2023-05-24T06:38:49;97963.38;;;12.28;73.24
71938;BME280;59810;48.800;9.086;2023-05-24T06:41:15;97961.78;;;12.54;74.40
71938;BME280;59810;48.800;9.086;2023-05-24T06:43:42;97963.13;;;13.05;71.04
71938;BME280;59810;48.800;9.086;2023-05-24T06:46:13;97963.63;;;13.02;70.77
71938;BME280;59810;48.800;9.086;2023-05-24T06:48:38;97968.31;;;13.38;71.08
71938;BME280;59810;48.800;9.086;2023-05-24T06:51:04;97971.59;;;13.41;66.98
71938;BME280;59810;48.800;9.086;2023-05-24T06:53:30;97975.66;;;13.43;69.30
71938;BME280;59810;48.800;9.086;2023-05-24T06:55:55;97976.94;;;12.76;65.77
71938;BME280;59810;48.800;9.086;2023-05-24T06:58:21;97980.09;;;12.68;66.33
71938;BME280;59810;48.800;9.086;2023-05-24T07:00:46;97990.84;;;12.36;66.53
71938;BME280;59810;48.800;9.086;2023-05-24T07:03:12;97989.69;;;12.10;68.31
71938;BME280;59810;48.800;9.086;2023-05-24T07:05:38;97995.38;;;11.92;68.94
71938;BME280;59810;48.800;9.086;2023-05-24T07:08:06;97991.97;;;11.80;69.84
71938;BME280;59810;48.800;9.086;2023-05-24T07:10:34;97987.03;;;11.60;70.43
71938;BME280;59810;48.800;9.086;2023-05-24T07:12:59;98005.50;;;11.46;70.52
71938;BME280;59810;48.800;9.086;2023-05-24T07:15:25;98006.97;;;11.37;70.84
71938;BME280;59810;48.800;9.086;2023-05-24T07:17:51;98017.56;;;11.39;71.00
71938;BME280;59810;48.800;9.086;2023-05-24T07:20:16;98017.69;;;11.32;71.01
71938;BME280;59810;48.800;9.086;2023-05-24T07:22:42;98011.63;;;11.25;72.82
71938;BME280;59810;48.800;9.086;2023-05-24T07:25:08;98015.00;;;11.15;73.25
71938;BME280;59810;48.800;9.086;2023-05-24T07:27:34;98015.31;;;11.19;72.70
71938;BME280;59810;48.800;9.086;2023-05-24T07:29:59;98019.38;;;11.05;72.46
71938;BME280;59810;48.800;9.086;2023-05-24T07:32:25;98027.34;;;11.11;73.22
71938;BME280;59810;48.800;9.086;2023-05-24T07:34:50;98029.91;;;11.18;71.88
71938;BME280;59810;48.800;9.086;2023-05-24T07:37:16;98031.69;;;11.12;71.32
71938;BME280;59810;48.800;9.086;2023-05-24T07:39:42;98023.00;;;11.27;72.93
71938;BME280;59810;48.800;9.086;2023-05-24T07:42:08;98028.59;;;11.37;71.10
71938;BME280;59810;48.800;9.086;2023-05-24T07:44:33;98028.25;;;11.34;71.21
71938;BME280;59810;48.800;9.086;2023-05-24T07:46:59;98028.28;;;11.50;71.75
71938;BME280;59810;48.800;9.086;2023-05-24T07:49:26;98026.28;;;11.63;70.44
71938;BME280;59810;48.800;9.086;2023-05-24T07:51:51;98023.88;;;11.78;70.61
71938;BME280;59810;48.800;9.086;2023-05-24T07:54:17;98025.59;;;11.84;68.90
71938;BME280;59810;48.800;9.086;2023-05-24T07:56:44;98025.41;;;11.74;68.60
71938;BME280;59810;48.800;9.086;2023-05-24T07:59:10;98030.44;;;11.82;69.78
71938;BME280;59810;48.800;9.086;2023-05-24T08:01:35;98028.94;;;11.91;69.18
71938;BME280;59810;48.800;9.086;2023-05-24T08:04:03;98036.47;;;11.89;68.59
71938;BME280;59810;48.800;9.086;2023-05-24T08:06:29;98037.13;;;11.96;68.25
71938;BME280;59810;48.800;9.086;2023-05-24T08:08:56;98037.78;;;11.87;68.57
71938;BME280;59810;48.800;9.086;2023-05-24T08:11:21;98038.13;;;11.90;68.88
71938;BME280;59810;48.800;9.086;2023-05-24T08:13:47;98041.56;;;11.86;69.42
71938;BME280;59810;48.800;9.086;2023-05-24T08:16:12;98045.66;;;11.88;69.08
71938;BME280;59810;48.800;9.086;2023-05-24T08:18:40;98043.28;;;11.75;69.61
71938;BME280;59810;48.800;9.086;2023-05-24T08:21:05;98045.66;;;11.88;68.77
71938;BME280;59810;48.800;9.086;2023-05-24T08:23:30;98051.22;;;11.65;69.93
71938;BME280;59810;48.800;9.086;2023-05-24T08:25:58;98049.41;;;11.70;69.88
71938;BME280;59810;48.800;9.086;2023-05-24T08:28:25;98055.34;;;11.84;69.54
71938;BME280;59810;48.800;9.086;2023-05-24T08:30:50;98055.00;;;11.97;69.83
71938;BME280;59810;48.800;9.086;2023-05-24T08:33:16;98058.75;;;12.13;68.29
71938;BME280;59810;48.800;9.086;2023-05-24T08:35:41;98053.34;;;11.96;68.08
71938;BME280;59810;48.800;9.086;2023-05-24T08:38:07;98056.22;;;12.06;67.75
71938;BME280;59810;48.800;9.086;2023-05-24T08:40:33;98056.34;;;12.17;67.86
71938;BME280;59810;48.800;9.086;2023-05-24T08:43:00;98054.91;;;12.31;67.60
71938;BME280;59810;48.800;9.086;2023-05-24T08:45:28;98060.00;;;12.44;66.39
71938;BME280;59810;48.800;9.086;2023-05-24T08:47:54;98067.78;;;12.62;65.26
71938;BME280;59810;48.800;9.086;2023-05-24T08:50:20;98060.94;;;12.55;65.81
71938;BME280;59810;48.800;9.086;2023-05-24T08:52:48;98061.66;;;12.28;65.41
71938;BME280;59810;48.800;9.086;2023-05-24T08:55:16;98060.72;;;12.18;66.16
71938;BME280;59810;48.800;9.086;2023-05-24T08:57:43;98070.22;;;12.20;68.07
71938;BME280;59810;48.800;9.086;2023-05-24T09:00:10;98063.16;;;12.19;67.13
71938;BME280;59810;48.800;9.086;2023-05-24T09:02:41;98054.41;;;12.34;65.55
71938;BME280;59810;48.800;9.086;2023-05-24T09:05:10;98063.84;;;12.09;66.72
71938;BME280;59810;48.800;9.086;2023-05-24T09:07:35;98060.63;;;12.12;67.00
71938;BME280;59810;48.800;9.086;2023-05-24T09:10:05;98058.94;;;11.73;66.55
71938;BME280;59810;48.800;9.086;2023-05-24T09:12:32;98058.59;;;11.69;67.61
71938;BME280;59810;48.800;9.086;2023-05-24T09:14:58;98054.09;;;11.75;67.87
71938;BME280;59810;48.800;9.086;2023-05-24T09:17:26;98062.72;;;11.72;68.74
71938;BME280;59810;48.800;9.086;2023-05-24T09:19:52;98053.03;;;11.76;68.89
71938;BME280;59810;48.800;9.086;2023-05-24T09:22:20;98054.78;;;11.82;68.67
71938;BME280;59810;48.800;9.086;2023-05-24T09:24:50;98067.63;;;11.75;68.71
71938;BME280;59810;48.800;9.086;2023-05-24T09:27:16;98055.97;;;11.91;69.41
71938;BME280;59810;48.800;9.086;2023-05-24T09:29:42;98053.84;;;11.93;68.80
71938;BME280;59810;48.800;9.086;2023-05-24T09:32:12;98058.00;;;12.01;67.48
71938;BME280;59810;48.800;9.086;2023-05-24T09:34:39;98054.50;;;12.00;68.98
71938;BME280;59810;48.800;9.086;2023-05-24T09:37:04;98061.72;;;11.95;68.09
71938;BME280;59810;48.800;9.086;2023-05-24T09:39:31;98066.47;;;12.04;68.07
71938;BME280;59810;48.800;9.086;2023-05-24T09:41:58;98070.34;;;12.08;66.54
71938;BME280;59810;48.800;9.086;2023-05-24T09:44:25;98079.91;;;11.99;66.10
71938;BME280;59810;48.800;9.086;2023-05-24T09:47:00;98071.97;;;11.93;66.68
71938;BME280;59810;48.800;9.086;2023-05-24T09:49:29;98077.97;;;11.78;67.00
71938;BME280;59810;48.800;9.086;2023-05-24T09:51:54;98075.03;;;11.79;65.77
71938;BME280;59810;48.800;9.086;2023-05-24T09:54:20;98067.88;;;11.73;67.52
71938;BME280;59810;48.800;9.086;2023-05-24T09:56:48;98077.13;;;11.77;67.78
71938;BME280;59810;48.800;9.086;2023-05-24T09:59:13;98077.13;;;11.77;66.67
71938;BME280;59810;48.800;9.086;2023-05-24T10:01:39;98075.41;;;11.71;67.16
71938;BME280;59810;48.800;9.086;2023-05-24T10:04:04;98076.81;;;11.74;68.18
71938;BME280;59810;48.800;9.086;2023-05-24T10:06:34;98067.44;;;11.65;68.24
71938;BME280;59810;48.800;9.086;2023-05-24T10:09:03;98069.75;;;11.90;73.85
71938;BME280;59810;48.800;9.086;2023-05-24T10:11:35;98072.47;;;12.06;67.98
71938;BME280;59810;48.800;9.086;2023-05-24T10:14:03;98073.53;;;12.05;66.80
71938;BME280;59810;48.800;9.086;2023-05-24T10:16:34;98068.78;;;11.96;67.05
71938;BME280;59810;48.800;9.086;2023-05-24T10:19:03;98071.47;;;11.96;66.58
71938;BME280;59810;48.800;9.086;2023-05-24T10:21:30;98073.84;;;11.92;66.43
71938;BME280;59810;48.800;9.086;2023-05-24T10:23:58;98075.91;;;11.85;65.02
71938;BME280;59810;48.800;9.086;2023-05-24T10:26:28;98076.00;;;11.90;66.77
71938;BME280;59810;48.800;9.086;2023-05-24T10:29:00;98067.38;;;12.10;67.84
71938;BME280;59810;48.800;9.086;2023-05-24T10:31:30;98066.63;;;12.14;65.93
71938;BME280;59810;48.800;9.086;2023-05-24T10:33:58;98066.63;;;12.14;65.61
71938;BME280;59810;48.800;9.086;2023-05-24T10:36:25;98071.47;;;12.12;64.55
71938;BME280;59810;48.800;9.086;2023-05-24T10:38:51;98069.19;;;12.04;65.19
71938;BME280;59810;48.800;9.086;2023-05-24T10:41:18;98055.59;;;12.21;67.74
71938;BME280;59810;48.800;9.086;2023-05-24T10:43:45;98061.16;;;12.31;66.18
71938;BME280;59810;48.800;9.086;2023-05-24T10:46:14;98058.44;;;12.31;64.03
71938;BME280;59810;48.800;9.086;2023-05-24T10:48:41;98058.06;;;12.23;64.36
71938;BME280;59810;48.800;9.086;2023-05-24T10:54:09;98051.78;;;12.83;69.36
71938;BME280;59810;48.800;9.086;2023-05-24T10:56:43;98053.97;;;12.86;62.43
71938;BME280;59810;48.800;9.086;2023-05-24T10:59:08;98044.13;;;13.01;62.76
71938;BME280;59810;48.800;9.086;2023-05-24T11:01:53;98047.03;;;12.95;61.87
71938;BME280;59810;48.800;9.086;2023-05-24T11:04:19;98042.00;;;13.03;63.54
71938;BME280;59810;48.800;9.086;2023-05-24T11:06:56;98040.28;;;13.19;61.31
71938;BME280;59810;48.800;9.086;2023-05-24T11:09:25;98039.53;;;13.29;62.52
71938;BME280;59810;48.800;9.086;2023-05-24T11:11:59;98039.50;;;13.56;60.29
71938;BME280;59810;48.800;9.086;2023-05-24T11:14:29;98044.00;;;13.72;64.45
71938;BME280;59810;48.800;9.086;2023-05-24T11:16:55;98041.84;;;13.74;59.92
71938;BME280;59810;48.800;9.086;2023-05-24T11:19:30;98048.19;;;13.90;56.19
71938;BME280;59810;48.800;9.086;2023-05-24T11:21:57;98040.72;;;13.70;57.19
71938;BME280;59810;48.800;9.086;2023-05-24T11:24:24;98040.19;;;13.73;58.42
71938;BME280;59810;48.800;9.086;2023-05-24T11:26:58;98040.44;;;13.66;57.01
71938;BME280;59810;48.800;9.086;2023-05-24T11:29:25;98039.50;;;13.56;56.71
71938;BME280;59810;48.800;9.086;2023-05-24T11:31:56;98034.25;;;13.76;58.52
71938;BME280;59810;48.800;9.086;2023-05-24T11:34:28;98034.56;;;13.85;59.69
71938;BME280;59810;48.800;9.086;2023-05-24T11:36:55;98033.41;;;14.13;56.71
71938;BME280;59810;48.800;9.086;2023-05-24T11:39:20;98028.91;;;14.33;51.78
71938;BME280;59810;48.800;9.086;2023-05-24T11:41:49;98025.59;;;14.89;50.94
71938;BME280;59810;48.800;9.086;2023-05-24T11:44:17;98029.47;;;15.13;50.98
71938;BME280;59810;48.800;9.086;2023-05-24T11:46:43;98028.75;;;14.55;51.28
71938;BME280;59810;48.800;9.086;2023-05-24T11:49:15;98023.16;;;14.87;53.07
71938;BME280;59810;48.800;9.086;2023-05-24T11:51:43;98018.09;;;15.52;48.44
71938;BME280;59810;48.800;9.086;2023-05-24T11:54:08;98009.69;;;15.74;48.18
71938;BME280;59810;48.800;9.086;2023-05-24T11:56:34;98017.56;;;15.96;48.94
71938;BME280;59810;48.800;9.086;2023-05-24T12:01:33;98011.81;;;15.92;50.33
71938;BME280;59810;48.800;9.086;2023-05-24T12:04:04;98011.56;;;15.83;47.15
71938;BME280;59810;48.800;9.086;2023-05-24T12:06:41;98007.19;;;16.03;49.04
71938;BME280;59810;48.800;9.086;2023-05-24T12:09:08;98014.22;;;16.14;47.84
71938;BME280;59810;48.800;9.086;2023-05-24T12:11:44;98010.16;;;16.11;49.68
71938;BME280;59810;48.800;9.086;2023-05-24T12:14:14;98003.31;;;16.19;47.46
71938;BME280;59810;48.800;9.086;2023-05-24T12:16:44;97995.47;;;16.82;46.67
71938;BME280;59810;48.800;9.086;2023-05-24T12:19:19;98006.38;;;16.82;44.64
71938;BME280;59810;48.800;9.086;2023-05-24T12:21:48;97996.06;;;17.18;44.54
71938;BME280;59810;48.800;9.086;2023-05-24T12:24:16;98003.38;;;17.28;46.92
71938;BME280;59810;48.800;9.086;2023-05-24T12:26:47;98000.69;;;17.18;47.76
71938;BME280;59810;48.800;9.086;2023-05-24T12:29:13;98005.28;;;16.83;46.75
71938;BME280;59810;48.800;9.086;2023-05-24T12:31:40;97991.50;;;17.08;45.48
71938;BME280;59810;48.800;9.086;2023-05-24T12:34:09;98003.34;;;17.33;45.33
71938;BME280;59810;48.800;9.086;2023-05-24T12:36:35;97988.28;;;17.75;43.82
71938;BME280;59810;48.800;9.086;2023-05-24T12:39:22;97993.81;;;17.64;44.80
71938;BME280;59810;48.800;9.086;2023-05-24T12:41:52;97991.38;;;17.29;44.04
71938;BME280;59810;48.800;9.086;2023-05-24T12:44:25;97990.22;;;17.35;44.41
71938;BME280;59810;48.800;9.086;2023-05-24T12:46:55;97988.91;;;17.95;44.09
71938;BME280;59810;48.800;9.086;2023-05-24T12:49:24;97982.63;;;18.43;42.24
71938;BME280;59810;48.800;9.086;2023-05-24T12:51:50;97980.34;;;18.02;43.55
71938;BME280;59810;48.800;9.086;2023-05-24T12:54:24;97982.34;;;17.96;45.01
71938;BME280;59810;48.800;9.086;2023-05-24T12:56:50;97983.75;;;17.60;46.35
71938;BME280;59810;48.800;9.086;2023-05-24T12:59:16;97981.06;;;17.84;43.37
71938;BME280;59810;48.800;9.086;2023-05-24T13:01:42;97973.63;;;17.60;45.36
71938;BME280;59810;48.800;9.086;2023-05-24T13:04:08;97980.97;;;18.23;46.78
71938;BME280;59810;48.800;9.086;2023-05-24T13:06:35;97973.53;;;18.47;42.85
71938;BME280;59810;48.800;9.086;2023-05-24T13:09:01;97970.97;;;18.80;43.61
71938;BME280;59810;48.800;9.086;2023-05-24T13:11:26;97982.03;;;17.98;42.88
71938;BME280;59810;48.800;9.086;2023-05-24T13:13:52;97975.56;;;16.82;44.62
71938;BME280;59810;48.800;9.086;2023-05-24T13:16:18;97963.63;;;17.11;45.13
71938;BME280;59810;48.800;9.086;2023-05-24T13:18:43;97968.63;;;17.72;42.86
71938;BME280;59810;48.800;9.086;2023-05-24T13:21:11;97966.47;;;18.22;41.98